createdAt,value
2023-11-15T00:01:08.049Z,0.88
2023-11-15T00:04:11.533Z,0.90
2023-11-15T00:07:16.582Z,0.98
2023-11-15T00:10:20.169Z,1.05
2023-11-15T00:13:42.264Z,1.10
2023-11-15T00:16:45.984Z,0.90
2023-11-15T00:20:11.319Z,0.95
2023-11-15T00:23:16.224Z,0.80
2023-11-15T00:26:20.936Z,0.90
2023-11-15T00:29:48.922Z,0.73
2023-11-15T00:32:52.741Z,0.85
2023-11-15T00:35:57.236Z,0.90
2023-11-15T00:39:02.371Z,0.75
2023-11-15T00:42:26.229Z,0.95
2023-11-15T00:45:30.160Z,0.85
2023-11-15T00:48:33.805Z,0.82
2023-11-15T00:51:57.762Z,0.98
2023-11-15T00:55:02.621Z,0.90
2023-11-15T00:58:10.200Z,1.00
2023-11-15T01:01:14.024Z,1.00
2023-11-15T01:04:17.693Z,0.73
2023-11-15T01:07:21.336Z,0.80
2023-11-15T01:10:26.639Z,1.10
2023-11-15T01:13:30.239Z,1.10
2023-11-15T01:16:33.814Z,0.80
2023-11-15T01:19:37.600Z,1.20
2023-11-15T01:22:42.716Z,1.55
2023-11-15T01:25:47.897Z,0.90
2023-11-15T01:28:52.323Z,0.90
2023-11-15T01:31:56.954Z,0.90
2023-11-15T01:35:00.487Z,1.00
2023-11-15T01:38:04.212Z,1.00
2023-11-15T01:41:09.326Z,1.00
2023-11-15T01:44:31.092Z,1.10
2023-11-15T01:47:35.073Z,0.90
2023-11-15T01:50:57.741Z,0.82
2023-11-15T01:54:21.208Z,1.00
2023-11-15T01:57:26.113Z,0.98
2023-11-15T02:00:47.879Z,0.93
2023-11-15T02:03:51.575Z,0.98
2023-11-15T02:06:55.342Z,1.20
2023-11-15T02:09:58.873Z,1.20
2023-11-15T02:13:03.885Z,0.82
2023-11-15T02:16:08.360Z,1.20
2023-11-15T02:19:30.421Z,1.33
2023-11-15T02:22:53.460Z,1.00
2023-11-15T02:25:59.305Z,1.10
2023-11-15T02:29:02.763Z,1.02
2023-11-15T02:32:06.436Z,0.98
2023-11-15T02:35:10.976Z,1.20
2023-11-15T02:38:14.537Z,1.00
2023-11-15T02:41:19.573Z,0.98
2023-11-15T02:44:23.149Z,0.98
2023-11-15T02:47:27.566Z,0.85
2023-11-15T02:50:32.217Z,0.85
2023-11-15T02:53:35.853Z,1.00
2023-11-15T02:56:40.719Z,1.10
2023-11-15T02:59:44.465Z,1.00
2023-11-15T03:02:48.542Z,1.15
2023-11-15T03:05:52.325Z,1.20
2023-11-15T03:08:56.084Z,1.20
2023-11-15T03:12:01.062Z,0.90
2023-11-15T03:15:06.432Z,0.90
2023-11-15T03:18:11.092Z,0.90
2023-11-15T03:21:14.675Z,1.10
2023-11-15T03:24:18.410Z,0.95
2023-11-15T03:27:23.259Z,1.08
2023-11-15T03:30:26.859Z,0.90
2023-11-15T03:33:30.667Z,1.10
2023-11-15T03:36:53.277Z,1.02
2023-11-15T03:39:57.006Z,1.05
2023-11-15T03:43:02.261Z,1.05
2023-11-15T03:46:06.780Z,1.00
2023-11-15T03:49:10.451Z,1.10
2023-11-15T03:52:14.076Z,1.02
2023-11-15T03:55:18.204Z,1.10
2023-11-15T03:58:24.216Z,0.90
2023-11-15T04:01:27.798Z,0.90
2023-11-15T04:04:31.778Z,1.40
2023-11-15T04:07:35.381Z,1.00
2023-11-15T04:10:39.363Z,0.90
2023-11-15T04:13:44.272Z,1.63
2023-11-15T04:16:47.788Z,1.13
2023-11-15T04:19:51.354Z,1.30
2023-11-15T04:22:54.903Z,1.25
2023-11-15T04:25:59.301Z,1.15
2023-11-15T04:29:04.866Z,1.08
2023-11-15T04:34:42.764Z,1.13
2023-11-15T04:37:46.285Z,1.10
2023-11-15T04:40:49.810Z,1.05
2023-11-15T04:43:53.604Z,1.13
2023-11-15T04:46:57.171Z,1.08
2023-11-15T04:50:02.025Z,1.35
2023-11-15T04:53:08.297Z,1.20
2023-11-15T04:56:12.265Z,1.20
2023-11-15T04:59:15.829Z,1.10
2023-11-15T05:02:19.353Z,1.20
2023-11-15T05:05:24.981Z,1.35
2023-11-15T05:08:29.268Z,1.30
2023-11-15T05:11:32.946Z,1.52
2023-11-15T05:14:37.464Z,1.40
2023-11-15T05:17:41.070Z,1.10
2023-11-15T05:20:47.249Z,1.35
2023-11-15T05:23:52.739Z,1.58
2023-11-15T05:26:57.117Z,1.58
2023-11-15T05:30:00.823Z,1.52
2023-11-15T05:33:04.554Z,1.40
2023-11-15T05:36:10.938Z,1.35
2023-11-15T05:39:14.553Z,1.48
2023-11-15T05:42:18.114Z,1.52
2023-11-15T05:45:21.614Z,1.40
2023-11-15T05:48:25.371Z,1.00
2023-11-15T05:51:31.020Z,1.45
2023-11-15T05:54:34.718Z,1.08
2023-11-15T05:57:38.494Z,1.10
2023-11-15T06:00:42.884Z,1.23
2023-11-15T06:04:05.148Z,1.20
2023-11-15T06:07:12.219Z,1.25
2023-11-15T06:10:34.097Z,1.20
2023-11-15T06:13:38.788Z,1.70
2023-11-15T06:16:42.402Z,1.00
2023-11-15T06:19:49.457Z,1.10
2023-11-15T06:22:59.928Z,1.05
2023-11-15T06:26:03.440Z,0.95
2023-11-15T06:29:08.245Z,1.50
2023-11-15T06:32:11.791Z,1.10
2023-11-15T06:35:33.667Z,1.02
2023-11-15T06:38:38.605Z,1.00
2023-11-15T06:41:42.656Z,1.10
2023-11-15T06:44:46.261Z,1.10
2023-11-15T06:47:52.292Z,1.20
2023-11-15T06:50:55.973Z,1.30
2023-11-15T06:59:33.194Z,1.20
2023-11-15T07:04:06.044Z,1.70
2023-11-15T07:07:33.728Z,1.40
2023-11-15T07:10:47.952Z,1.20
2023-11-15T07:13:51.615Z,1.17
2023-11-15T07:16:56.812Z,1.40
2023-11-15T07:20:22.251Z,1.33
2023-11-15T07:24:11.429Z,1.40
2023-11-15T07:27:37.628Z,1.55
2023-11-15T07:30:43.262Z,1.77
2023-11-15T07:34:06.959Z,2.20
2023-11-15T07:37:10.904Z,2.15
2023-11-15T07:40:14.692Z,2.15
2023-11-15T07:43:19.474Z,2.25
2023-11-15T07:46:25.558Z,2.00
2023-11-15T07:49:32.309Z,2.00
2023-11-15T07:52:36.009Z,2.00
2023-11-15T07:55:39.528Z,1.77
2023-11-15T07:58:45.901Z,1.80
2023-11-15T08:01:49.837Z,1.77
2023-11-15T08:04:53.469Z,1.90
2023-11-15T08:07:58.683Z,1.90
2023-11-15T08:11:04.956Z,1.50
2023-11-15T08:14:11.023Z,1.65
2023-11-15T08:17:15.713Z,1.80
2023-11-15T08:20:19.438Z,1.52
2023-11-15T08:23:41.551Z,1.60
2023-11-15T08:26:51.149Z,1.45
2023-11-15T08:29:56.251Z,1.70
2023-11-15T08:32:59.920Z,1.65
2023-11-15T08:36:03.527Z,2.00
2023-11-15T08:39:26.272Z,2.00
2023-11-15T08:42:29.861Z,1.65
2023-11-15T08:45:34.746Z,1.95
2023-11-15T08:48:38.518Z,1.80
2023-11-15T08:51:42.437Z,1.75
2023-11-15T08:55:05.065Z,1.75
2023-11-15T08:58:08.642Z,1.98
2023-11-15T09:01:14.031Z,1.90
2023-11-15T09:04:18.878Z,1.33
2023-11-15T09:07:22.373Z,1.50
2023-11-15T09:10:28.145Z,2.00
2023-11-15T09:13:34.149Z,1.90
2023-11-15T09:16:39.039Z,1.50
2023-11-15T09:19:47.633Z,1.55
2023-11-15T09:22:55.153Z,1.70
2023-11-15T09:29:22.442Z,1.50
2023-11-15T09:32:27.204Z,1.30
2023-11-15T09:35:32.650Z,1.50
2023-11-15T09:38:36.205Z,1.65
2023-11-15T09:41:39.869Z,1.35
2023-11-15T09:44:45.380Z,1.20
2023-11-15T09:47:52.247Z,1.35
2023-11-15T09:50:57.933Z,1.45
2023-11-15T09:54:13.051Z,1.65
2023-11-15T09:57:21.681Z,1.50
2023-11-15T10:00:30.492Z,1.85
2023-11-15T10:03:42.028Z,1.42
2023-11-15T10:06:46.189Z,1.50
2023-11-15T10:09:51.170Z,1.70
2023-11-15T10:12:55.855Z,1.65
2023-11-15T10:16:00.195Z,1.58
2023-11-15T10:19:23.977Z,1.38
2023-11-15T10:22:27.805Z,1.65
2023-11-15T10:25:32.943Z,1.50
2023-11-15T10:28:41.019Z,1.98
2023-11-15T10:34:52.883Z,1.20
2023-11-15T10:38:02.134Z,1.30
2023-11-15T10:41:09.544Z,1.42
2023-11-15T10:44:16.223Z,1.85
2023-11-15T10:47:25.031Z,1.73
2023-11-15T10:50:35.357Z,1.25
2023-11-15T10:53:40.856Z,1.77
2023-11-15T10:56:52.734Z,1.23
2023-11-15T11:00:07.963Z,1.65
2023-11-15T11:03:13.244Z,1.52
2023-11-15T11:06:27.099Z,1.67
2023-11-15T11:09:38.251Z,1.50
2023-11-15T11:12:43.810Z,1.60
2023-11-15T11:15:49.206Z,1.38
2023-11-15T11:19:12.876Z,1.40
2023-11-15T11:22:19.348Z,1.40
2023-11-15T11:25:26.849Z,1.20
2023-11-15T11:29:00.978Z,1.57
2023-11-15T11:32:21.224Z,1.20
2023-11-15T11:35:38.846Z,1.40
2023-11-15T11:38:45.681Z,1.60
2023-11-15T11:41:52.570Z,1.30
2023-11-15T11:44:57.802Z,1.50
2023-11-15T11:48:03.888Z,1.00
2023-11-15T11:51:09.571Z,1.77
2023-11-15T11:54:25.525Z,2.13
2023-11-15T11:57:34.813Z,1.63
2023-11-15T12:00:39.234Z,1.10
2023-11-15T12:03:49.292Z,1.48
2023-11-15T12:06:55.772Z,1.48
2023-11-15T12:10:07.025Z,1.40
2023-11-15T12:13:12.775Z,1.30
2023-11-15T12:16:20.569Z,1.30
2023-11-15T12:19:27.919Z,1.48
2023-11-15T12:22:32.622Z,1.45
2023-11-15T12:25:48.467Z,1.10
2023-11-15T12:28:52.953Z,1.45
2023-11-15T12:32:00.595Z,1.52
2023-11-15T12:35:08.287Z,1.33
2023-11-15T12:38:14.643Z,1.40
2023-11-15T12:41:20.714Z,1.50
2023-11-15T12:44:25.248Z,2.45
2023-11-15T12:47:30.435Z,2.45
2023-11-15T12:50:36.002Z,2.25
2023-11-15T12:53:43.191Z,2.65
2023-11-15T12:57:06.765Z,2.70
2023-11-15T13:00:30.489Z,2.65
2023-11-15T13:03:36.963Z,2.00
2023-11-15T13:06:43.663Z,1.80
2023-11-15T13:09:49.646Z,2.58
2023-11-15T13:12:58.574Z,2.10
2023-11-15T13:16:04.465Z,2.05
2023-11-15T13:19:10.995Z,2.67
2023-11-15T13:22:16.675Z,2.60
2023-11-15T13:25:22.500Z,2.45
2023-11-15T13:28:30.608Z,1.92
2023-11-15T13:31:35.730Z,2.53
2023-11-15T13:34:40.523Z,3.42
2023-11-15T13:37:45.013Z,2.30
2023-11-15T13:40:49.999Z,3.28
2023-11-15T13:43:59.206Z,3.90
2023-11-15T13:47:06.305Z,2.75
2023-11-15T13:50:12.573Z,3.28
2023-11-15T13:53:17.298Z,2.42
2023-11-15T13:56:22.408Z,2.50
2023-11-15T13:59:33.060Z,2.53
2023-11-15T14:02:37.609Z,2.47
2023-11-15T14:05:44.469Z,2.42
2023-11-15T14:08:56.076Z,1.83
2023-11-15T14:12:06.169Z,2.40
2023-11-15T14:18:18.136Z,2.20
2023-11-15T14:21:22.727Z,2.05
2023-11-15T14:24:26.934Z,1.70
2023-11-15T14:27:31.596Z,1.98
2023-11-15T14:30:37.563Z,2.30
2023-11-15T14:33:42.123Z,1.83
2023-11-15T14:36:47.604Z,2.20
2023-11-15T14:39:52.222Z,2.00
2023-11-15T14:42:57.924Z,2.30
2023-11-15T14:46:04.424Z,6.43
2023-11-15T14:49:09.184Z,1.98
2023-11-15T14:52:14.683Z,1.58
2023-11-15T14:55:20.204Z,2.10
2023-11-15T14:58:26.637Z,2.00
2023-11-15T15:01:32.327Z,1.92
2023-11-15T15:04:38.676Z,1.60
2023-11-15T15:07:45.621Z,1.33
2023-11-15T15:10:54.561Z,1.48
2023-11-15T15:13:59.161Z,1.63
2023-11-15T15:17:07.194Z,2.25
2023-11-15T15:20:17.929Z,2.35
2023-11-15T15:23:22.500Z,2.63
2023-11-15T15:26:26.504Z,1.60
2023-11-15T15:29:31.068Z,2.22
2023-11-15T15:32:36.238Z,2.40
2023-11-15T15:35:40.344Z,4.63
2023-11-15T15:38:44.164Z,1.92
2023-11-15T15:41:50.709Z,1.42
2023-11-15T15:44:54.934Z,1.80
2023-11-15T15:48:00.670Z,2.65
2023-11-15T15:51:05.396Z,2.40
2023-11-15T15:54:09.406Z,2.60
2023-11-15T15:57:13.444Z,2.22
2023-11-15T16:00:18.813Z,22.75
2023-11-15T16:03:24.650Z,10.45
2023-11-15T16:06:28.858Z,2.60
2023-11-15T16:09:32.781Z,2.50
2023-11-15T16:12:37.687Z,3.10
2023-11-15T16:15:42.058Z,3.33
2023-11-15T16:18:47.693Z,2.53
2023-11-15T16:21:51.199Z,2.67
2023-11-15T16:24:55.935Z,2.28
2023-11-15T16:28:00.222Z,2.35
2023-11-15T16:34:42.473Z,4.00
2023-11-15T16:37:48.579Z,2.53
2023-11-15T16:40:53.619Z,2.90
2023-11-15T16:44:06.375Z,3.55
2023-11-15T16:47:09.907Z,3.60
2023-11-15T16:50:15.122Z,4.50
2023-11-15T16:53:18.833Z,4.45
2023-11-15T16:56:22.453Z,4.00
2023-11-15T16:59:25.985Z,2.95
2023-11-15T17:02:32.207Z,2.53
2023-11-15T17:05:37.336Z,2.70
2023-11-15T17:08:44.056Z,2.47
2023-11-15T17:11:51.397Z,3.17
2023-11-15T17:14:59.997Z,2.25
2023-11-15T17:18:05.011Z,1.90
2023-11-15T17:21:10.742Z,2.20
2023-11-15T17:24:14.818Z,2.03
2023-11-15T17:27:18.576Z,1.80
2023-11-15T17:30:22.457Z,2.67
2023-11-15T17:33:26.129Z,1.90
2023-11-15T17:36:31.045Z,1.90
2023-11-15T17:39:34.657Z,2.10
2023-11-15T17:42:38.450Z,2.50
2023-11-15T17:45:44.410Z,3.10
2023-11-15T17:48:47.903Z,2.40
2023-11-15T17:51:54.415Z,3.20
2023-11-15T17:54:58.083Z,3.63
2023-11-15T17:58:04.775Z,4.95
2023-11-15T18:01:09.961Z,4.15
2023-11-15T18:04:16.247Z,6.95
2023-11-15T18:07:21.505Z,4.75
2023-11-15T18:10:29.565Z,3.85
2023-11-15T18:13:33.477Z,4.03
2023-11-15T18:16:37.570Z,3.67
2023-11-15T18:19:42.204Z,4.47
2023-11-15T18:22:47.593Z,4.18
2023-11-15T18:25:52.529Z,4.07
2023-11-15T18:28:57.692Z,4.38
2023-11-15T18:32:01.853Z,4.03
2023-11-15T18:35:05.844Z,3.38
2023-11-15T18:38:14.062Z,4.82
2023-11-15T18:41:17.626Z,4.30
2023-11-15T18:44:21.911Z,3.78
2023-11-15T18:47:25.558Z,4.13
2023-11-15T18:50:29.220Z,3.75
2023-11-15T18:53:34.092Z,3.70
2023-11-15T18:56:37.656Z,3.83
2023-11-15T18:59:42.500Z,3.90
2023-11-15T19:02:47.445Z,4.00
2023-11-15T19:05:57.192Z,4.15
2023-11-15T19:09:06.312Z,3.70
2023-11-15T19:12:10.336Z,2.95
2023-11-15T19:15:14.189Z,3.00
2023-11-15T19:18:17.858Z,3.03
2023-11-15T19:21:21.438Z,2.92
2023-11-15T19:24:26.840Z,3.70
2023-11-15T19:27:31.261Z,4.05
2023-11-15T19:30:35.554Z,4.35
2023-11-15T19:33:39.198Z,3.10
2023-11-15T19:36:42.792Z,3.50
2023-11-15T19:39:47.780Z,2.95
2023-11-15T19:42:51.958Z,2.33
2023-11-15T19:45:57.277Z,5.05
2023-11-15T19:49:01.634Z,2.90
2023-11-15T19:52:12.717Z,3.30
2023-11-15T19:55:19.079Z,2.50
2023-11-15T19:58:22.953Z,3.08
2023-11-15T20:01:27.622Z,3.47
2023-11-15T20:04:32.404Z,3.17
2023-11-15T20:07:36.052Z,2.90
2023-11-15T20:10:41.050Z,2.80
2023-11-15T20:13:44.570Z,4.10
2023-11-15T20:16:48.170Z,4.22
2023-11-15T20:19:52.682Z,3.75
2023-11-15T20:22:57.366Z,3.35
2023-11-15T20:26:03.700Z,3.80
2023-11-15T20:29:11.347Z,3.83
2023-11-15T20:32:15.169Z,2.95
2023-11-15T20:35:18.578Z,3.10
2023-11-15T20:38:22.061Z,3.40
2023-11-15T20:41:26.920Z,3.15
2023-11-15T20:44:30.542Z,2.35
2023-11-15T20:47:34.268Z,2.88
2023-11-15T20:50:37.849Z,2.33
2023-11-15T20:53:41.896Z,2.45
2023-11-15T20:56:51.388Z,2.63
2023-11-15T20:59:58.401Z,3.10
2023-11-15T21:03:05.764Z,3.08
2023-11-15T21:06:10.380Z,3.20
2023-11-15T21:09:16.188Z,2.83
2023-11-15T21:12:22.002Z,3.35
2023-11-15T21:15:25.552Z,3.42
2023-11-15T21:18:29.055Z,3.10
2023-11-15T21:21:34.151Z,3.35
2023-11-15T21:24:37.936Z,4.03
2023-11-15T21:27:44.505Z,3.50
2023-11-15T21:30:48.182Z,3.35
2023-11-15T21:33:51.731Z,3.30
2023-11-15T21:37:00.176Z,3.13
2023-11-15T21:40:09.500Z,3.70
2023-11-15T21:43:14.300Z,4.55
2023-11-15T21:46:17.910Z,4.68
2023-11-15T21:49:21.565Z,5.70
2023-11-15T21:52:25.332Z,6.88
2023-11-15T21:55:29.077Z,4.43
2023-11-15T21:58:34.881Z,5.32
2023-11-15T22:01:38.401Z,5.63
2023-11-15T22:04:42.234Z,5.28
2023-11-15T22:07:46.648Z,4.60
2023-11-15T22:10:50.152Z,6.35
2023-11-15T22:13:55.105Z,4.43
2023-11-15T22:16:59.422Z,5.63
2023-11-15T22:20:03.141Z,4.50
2023-11-15T22:23:08.290Z,4.60
2023-11-15T22:26:11.692Z,4.38
2023-11-15T22:29:16.758Z,3.88
2023-11-15T22:34:54.490Z,4.45
2023-11-15T22:37:58.073Z,4.15
2023-11-15T22:41:01.791Z,3.05
2023-11-15T22:44:05.384Z,2.88
2023-11-15T22:47:08.905Z,2.83
2023-11-15T22:50:14.125Z,2.75
2023-11-15T22:53:18.376Z,3.38
2023-11-15T22:56:21.889Z,2.50
2023-11-15T22:59:25.344Z,2.50
2023-11-15T23:02:29.224Z,3.20
2023-11-15T23:05:34.219Z,2.90
2023-11-15T23:08:37.704Z,2.58
2023-11-15T23:11:41.410Z,2.88
2023-11-15T23:14:44.889Z,2.92
2023-11-15T23:17:48.987Z,2.20
2023-11-15T23:20:53.844Z,3.28
2023-11-15T23:23:57.561Z,3.03
2023-11-15T23:27:01.898Z,2.85
2023-11-15T23:30:06.010Z,3.38
2023-11-15T23:33:09.742Z,2.88
2023-11-15T23:36:16.282Z,2.67
2023-11-15T23:39:24.205Z,2.55
2023-11-15T23:42:27.985Z,2.80
2023-11-15T23:45:32.723Z,3.00
2023-11-15T23:48:37.064Z,3.08
2023-11-15T23:51:42.151Z,3.40
2023-11-15T23:54:45.684Z,3.60
2023-11-15T23:57:50.093Z,3.97
